createdAt,value
2023-02-23T00:00:14.841Z,9.50
2023-02-23T00:04:26.688Z,9.51
2023-02-23T01:20:02.279Z,9.52
2023-02-23T01:24:14.217Z,9.50
2023-02-23T01:28:25.722Z,9.52
2023-02-23T01:32:38.993Z,9.58
2023-02-23T01:36:50.939Z,9.59
2023-02-23T01:41:02.752Z,9.58
2023-02-23T01:45:28.049Z,9.51
2023-02-23T01:49:40.191Z,9.45
2023-02-23T01:53:58.943Z,9.46
2023-02-23T01:58:16.477Z,9.45
2023-02-23T02:02:33.524Z,9.45
2023-02-23T02:06:48.491Z,9.45
2023-02-23T02:11:00.059Z,9.35
2023-02-23T02:15:17.437Z,9.30
2023-02-23T02:20:12.578Z,9.37
2023-02-23T02:24:33.136Z,9.41
2023-02-23T02:29:39.979Z,9.49
2023-02-23T02:34:07.385Z,9.43
2023-02-23T02:38:30.979Z,9.37
2023-02-23T02:43:09.175Z,9.33
2023-02-23T02:47:29.097Z,9.38
2023-02-23T02:51:51.620Z,9.25
2023-02-23T02:56:05.629Z,9.26
2023-02-23T03:00:42.041Z,9.23
2023-02-23T03:05:12.513Z,9.22
2023-02-23T03:10:10.129Z,9.30
2023-02-23T03:14:51.060Z,9.27
2023-02-23T03:19:33.866Z,9.26
2023-02-23T03:24:09.393Z,9.24
2023-02-23T03:28:49.048Z,9.26
2023-02-23T03:33:26.835Z,9.20
2023-02-23T03:38:03.906Z,9.21
2023-02-23T03:42:38.235Z,9.22
2023-02-23T03:47:11.650Z,9.24
2023-02-23T03:51:44.760Z,9.25
2023-02-23T03:56:18.179Z,9.25
2023-02-23T04:00:56.411Z,9.27
2023-02-23T04:05:33.503Z,9.19
2023-02-23T04:10:03.675Z,9.07
2023-02-23T04:14:57.265Z,9.21
2023-02-23T04:19:08.944Z,9.17
2023-02-23T04:23:22.828Z,9.15
2023-02-23T04:27:35.898Z,9.16
2023-02-23T04:31:48.778Z,9.15
2023-02-23T04:36:00.382Z,9.11
2023-02-23T04:40:12.586Z,9.10
2023-02-23T04:44:24.182Z,9.07
2023-02-23T04:48:36.022Z,9.02
2023-02-23T04:52:47.804Z,8.89
2023-02-23T04:56:59.373Z,8.96
2023-02-23T05:01:11.277Z,8.92
2023-02-23T05:05:23.392Z,8.97
2023-02-23T05:09:35.080Z,8.92
2023-02-23T05:13:46.596Z,8.95
2023-02-23T05:17:58.182Z,8.95
2023-02-23T05:22:12.624Z,8.88
2023-02-23T05:26:24.321Z,8.88
2023-02-23T05:30:36.532Z,8.86
2023-02-23T05:34:48.123Z,8.97
2023-02-23T05:39:00.344Z,8.98
2023-02-23T05:43:11.880Z,8.95
2023-02-23T05:47:23.490Z,8.93
2023-02-23T05:51:35.087Z,8.90
2023-02-23T05:55:46.675Z,8.92
2023-02-23T05:59:58.211Z,8.87
2023-02-23T06:04:09.810Z,8.91
2023-02-23T06:08:21.650Z,8.89
2023-02-23T06:12:33.242Z,8.88
2023-02-23T06:16:45.410Z,8.86
2023-02-23T06:21:00.439Z,8.90
2023-02-23T06:25:12.880Z,8.88
2023-02-23T06:29:24.518Z,8.84
2023-02-23T06:33:36.012Z,8.78
2023-02-23T06:37:47.531Z,8.82
2023-02-23T06:41:59.224Z,8.84
2023-02-23T06:46:10.725Z,8.72
2023-02-23T06:50:22.589Z,8.89
2023-02-23T06:54:34.310Z,8.82
2023-02-23T06:58:46.287Z,8.85
2023-02-23T07:02:58.939Z,8.78
2023-02-23T07:07:11.152Z,8.84
2023-02-23T07:11:22.767Z,8.83
2023-02-23T07:15:36.486Z,8.85
2023-02-23T07:19:48.071Z,8.86
2023-02-23T07:24:01.011Z,8.82
2023-02-23T07:28:14.253Z,8.84
2023-02-23T07:32:25.963Z,8.86
2023-02-23T07:36:37.609Z,8.87
2023-02-23T07:40:53.021Z,8.95
2023-02-23T07:45:05.381Z,9.00
2023-02-23T07:49:16.872Z,9.05
2023-02-23T07:53:28.521Z,9.02
2023-02-23T07:57:40.146Z,9.08
2023-02-23T08:01:52.382Z,8.96
2023-02-23T08:06:04.169Z,9.07
2023-02-23T08:10:15.757Z,9.10
2023-02-23T08:14:27.374Z,9.14
2023-02-23T08:18:39.028Z,9.15
2023-02-23T08:22:57.568Z,9.17
2023-02-23T08:27:09.143Z,9.14
2023-02-23T08:31:23.894Z,9.05
2023-02-23T08:35:36.114Z,9.34
2023-02-23T08:39:47.667Z,9.39
2023-02-23T08:43:59.370Z,9.45
2023-02-23T08:48:10.916Z,9.43
2023-02-23T08:52:22.650Z,9.49
2023-02-23T08:56:34.252Z,9.52
2023-02-23T09:00:45.867Z,9.59
2023-02-23T09:04:58.247Z,9.55
2023-02-23T09:09:09.833Z,9.59
2023-02-23T09:13:21.444Z,9.58
2023-02-23T09:17:33.016Z,9.61
2023-02-23T09:21:44.677Z,9.62
2023-02-23T09:25:56.326Z,9.64
2023-02-23T09:30:08.512Z,9.76
2023-02-23T09:34:20.200Z,9.75
2023-02-23T09:38:31.994Z,9.83
2023-02-23T09:42:54.162Z,9.87
2023-02-23T09:47:40.411Z,9.94
2023-02-23T09:51:57.786Z,9.97
2023-02-23T09:56:18.148Z,9.96
2023-02-23T10:00:34.000Z,9.97
2023-02-23T10:04:48.894Z,10.10
2023-02-23T10:09:10.658Z,10.10
2023-02-23T10:13:39.652Z,10.06
2023-02-23T10:18:16.138Z,10.05
2023-02-23T10:22:29.200Z,9.93
2023-02-23T10:26:50.633Z,9.96
2023-02-23T10:31:12.893Z,9.94
2023-02-23T10:35:27.607Z,9.89
2023-02-23T10:39:41.969Z,9.87
2023-02-23T10:43:53.704Z,9.89
2023-02-23T10:48:09.456Z,9.88
2023-02-23T10:52:41.526Z,9.84
2023-02-23T10:56:53.469Z,9.97
2023-02-23T11:01:06.296Z,10.05
2023-02-23T11:05:37.225Z,10.05
2023-02-23T11:09:51.573Z,10.17
2023-02-23T11:14:16.832Z,10.17
2023-02-23T11:18:29.456Z,10.17
2023-02-23T11:22:42.316Z,10.16
2023-02-23T11:27:03.729Z,10.15
2023-02-23T11:31:28.505Z,9.99
2023-02-23T11:35:40.095Z,10.02
2023-02-23T11:39:53.272Z,10.03
2023-02-23T11:44:06.643Z,9.94
2023-02-23T11:48:33.616Z,9.96
2023-02-23T11:52:45.214Z,9.98
2023-02-23T11:56:58.138Z,10.07
2023-02-23T12:01:14.073Z,10.06
2023-02-23T12:05:31.202Z,10.20
2023-02-23T12:09:45.854Z,10.17
2023-02-23T12:14:07.259Z,10.26
2023-02-23T12:18:40.658Z,10.28
2023-02-23T12:22:56.531Z,10.34
2023-02-23T12:27:17.501Z,10.44
2023-02-23T12:31:49.901Z,10.36
2023-02-23T12:36:39.325Z,10.56
2023-02-23T12:40:54.790Z,10.47
2023-02-23T12:45:17.806Z,10.38
2023-02-23T12:49:55.380Z,10.36
2023-02-23T12:54:09.563Z,10.11
2023-02-23T12:58:29.964Z,10.03
2023-02-23T13:02:54.929Z,10.00
2023-02-23T13:07:35.083Z,9.98
2023-02-23T13:12:17.057Z,10.20
2023-02-23T13:16:38.947Z,10.10
2023-02-23T13:21:32.640Z,10.22
2023-02-23T13:26:10.793Z,10.08
2023-02-23T13:30:22.727Z,10.08
2023-02-23T13:34:42.689Z,10.08
2023-02-23T13:39:28.404Z,10.09
2023-02-23T13:43:49.566Z,10.05
2023-02-23T13:48:24.539Z,10.05
2023-02-23T13:52:41.806Z,10.15
2023-02-23T13:57:01.759Z,10.19
2023-02-23T14:01:29.577Z,10.31
2023-02-23T14:05:45.435Z,10.44
2023-02-23T14:10:03.673Z,10.64
2023-02-23T14:14:35.201Z,10.70
2023-02-23T14:19:09.004Z,10.69
2023-02-23T14:23:20.459Z,10.53
2023-02-23T14:28:00.568Z,10.57
2023-02-23T14:32:15.314Z,10.56
2023-02-23T14:36:27.038Z,10.44
2023-02-23T14:40:42.384Z,10.41
2023-02-23T14:44:56.318Z,10.35
2023-02-23T14:49:15.490Z,10.32
2023-02-23T14:53:29.789Z,10.28
2023-02-23T14:57:43.559Z,10.27
2023-02-23T15:01:59.435Z,10.20
2023-02-23T15:06:11.646Z,10.12
2023-02-23T15:10:34.787Z,10.23
2023-02-23T15:14:50.072Z,10.23
2023-02-23T15:19:04.390Z,10.21
2023-02-23T15:23:19.298Z,10.20
2023-02-23T15:27:45.438Z,10.25
2023-02-23T15:32:11.332Z,10.16
2023-02-23T15:36:34.706Z,10.17
2023-02-23T15:40:47.096Z,10.18
2023-02-23T15:45:01.759Z,10.18
2023-02-23T15:49:19.387Z,10.17
2023-02-23T15:53:37.570Z,10.04
2023-02-23T15:58:18.512Z,10.01
2023-02-23T16:02:30.206Z,9.95
2023-02-23T16:36:39.773Z,9.71
2023-02-23T16:40:51.710Z,9.72
2023-02-23T16:45:03.335Z,9.71
2023-02-23T16:49:14.874Z,9.65
2023-02-23T16:59:24.109Z,9.61
2023-02-23T17:03:43.738Z,9.63
2023-02-23T17:07:59.251Z,9.67
2023-02-23T17:12:13.367Z,9.59
2023-02-23T17:16:25.172Z,9.50
2023-02-23T17:20:36.801Z,9.46
2023-02-23T17:24:48.279Z,9.31
2023-02-23T17:28:59.878Z,9.19
2023-02-23T17:33:11.571Z,9.00
2023-02-23T17:37:23.267Z,9.08
2023-02-23T17:41:36.253Z,9.00
2023-02-23T17:45:48.429Z,8.90
2023-02-23T17:50:01.402Z,8.78
2023-02-23T17:54:14.043Z,8.71
2023-02-23T17:58:26.242Z,8.78
2023-02-23T18:03:10.037Z,8.61
2023-02-23T18:07:48.452Z,8.72
2023-02-23T18:12:00.263Z,8.51
2023-02-23T18:16:12.920Z,8.31
2023-02-23T18:20:24.508Z,8.19
2023-02-23T18:24:37.614Z,8.12
2023-02-23T18:28:51.242Z,8.25
2023-02-23T18:33:03.845Z,8.19
2023-02-23T18:37:21.427Z,8.05
2023-02-23T18:41:33.436Z,7.94
2023-02-23T18:45:45.007Z,7.68
2023-02-23T18:49:58.910Z,7.79
2023-02-23T18:54:17.181Z,7.79
2023-02-23T18:58:28.826Z,7.64
2023-02-23T19:02:41.718Z,7.55
2023-02-23T19:06:53.318Z,7.45
2023-02-23T19:11:05.244Z,7.36
2023-02-23T19:15:17.016Z,7.28
2023-02-23T19:19:28.629Z,7.12
2023-02-23T19:23:40.271Z,7.09
2023-02-23T19:27:51.781Z,6.84
2023-02-23T19:32:04.487Z,6.73
2023-02-23T19:36:19.161Z,6.77
2023-02-23T19:40:30.941Z,6.39
2023-02-23T19:44:43.102Z,6.58
2023-02-23T19:48:54.994Z,6.48
2023-02-23T19:53:06.509Z,6.48
2023-02-23T19:57:19.573Z,6.39
2023-02-23T20:01:31.559Z,6.33
2023-02-23T20:05:43.192Z,6.24
2023-02-23T20:09:54.846Z,6.05
2023-02-23T20:14:08.110Z,6.14
2023-02-23T20:18:21.095Z,6.08
2023-02-23T20:22:33.401Z,5.86
2023-02-23T20:26:46.030Z,5.92
2023-02-23T20:30:57.632Z,5.89
2023-02-23T20:35:11.416Z,5.81
2023-02-23T20:39:24.258Z,5.65
2023-02-23T20:43:35.872Z,5.72
2023-02-23T20:47:51.946Z,5.67
2023-02-23T20:52:04.224Z,5.65
2023-02-23T20:56:18.189Z,5.58
2023-02-23T21:00:31.767Z,5.34
2023-02-23T21:04:45.319Z,5.35
2023-02-23T21:09:02.769Z,5.35
2023-02-23T21:13:15.481Z,5.27
2023-02-23T21:17:27.252Z,5.13
2023-02-23T21:21:41.256Z,5.07
2023-02-23T21:25:54.008Z,5.03
2023-02-23T21:30:30.726Z,5.06
2023-02-23T21:34:43.645Z,4.93
2023-02-23T21:39:21.644Z,4.96
2023-02-23T21:43:37.753Z,4.80
2023-02-23T21:47:49.489Z,4.55
2023-02-23T21:52:01.221Z,4.66
2023-02-23T21:56:42.739Z,4.69
2023-02-23T22:00:54.454Z,4.58
2023-02-23T22:05:07.106Z,4.52
2023-02-23T22:09:18.691Z,4.45
2023-02-23T22:13:30.380Z,4.44
2023-02-23T22:17:43.337Z,4.37
2023-02-23T22:21:55.189Z,4.37
2023-02-23T22:26:07.890Z,4.30
2023-02-23T22:30:22.405Z,4.28
2023-02-23T22:34:34.056Z,4.19
2023-02-23T22:38:46.702Z,4.15
2023-02-23T22:42:59.259Z,4.17
2023-02-23T22:47:10.939Z,4.08
2023-02-23T22:51:50.513Z,4.05
2023-02-23T22:56:02.283Z,3.96
2023-02-23T23:00:18.286Z,3.85
2023-02-23T23:04:30.372Z,3.87
2023-02-23T23:08:45.155Z,3.80
2023-02-23T23:12:58.933Z,3.74
2023-02-23T23:17:10.764Z,3.67
2023-02-23T23:21:24.765Z,3.59
2023-02-23T23:25:41.726Z,3.60
2023-02-23T23:29:53.391Z,3.52
2023-02-23T23:34:09.614Z,3.45
2023-02-23T23:38:21.293Z,3.45
2023-02-23T23:42:34.852Z,3.38
2023-02-23T23:46:48.087Z,3.36
2023-02-23T23:51:06.746Z,3.29
2023-02-23T23:55:18.927Z,3.23
2023-02-23T23:59:31.921Z,3.21
